createdAt,value
2022-12-13T00:01:57.572Z,-3.50
2022-12-13T00:07:04.448Z,-3.50
2022-12-13T00:12:11.447Z,-3.50
2022-12-13T00:17:17.965Z,-3.50
2022-12-13T00:22:26.831Z,-3.60
2022-12-13T00:27:34.335Z,-3.70
2022-12-13T00:32:41.088Z,-3.70
2022-12-13T00:37:47.663Z,-3.80
2022-12-13T00:42:54.543Z,-3.80
2022-12-13T00:48:01.566Z,-4.00
2022-12-13T00:53:07.968Z,-4.00
2022-12-13T00:58:14.505Z,-4.00
2022-12-13T01:03:21.127Z,-4.10
2022-12-13T01:08:29.538Z,-3.90
2022-12-13T01:13:36.447Z,-3.80
2022-12-13T01:18:43.515Z,-3.90
2022-12-13T01:23:50.316Z,-4.00
2022-12-13T01:28:56.975Z,-4.00
2022-12-13T01:34:05.161Z,-4.00
2022-12-13T01:39:14.816Z,-4.00
2022-12-13T01:45:03.330Z,-4.00
2022-12-13T01:50:20.274Z,-3.90
2022-12-13T01:55:31.636Z,-3.90
2022-12-13T02:00:41.024Z,-3.90
2022-12-13T02:05:54.998Z,-3.90
2022-12-13T02:11:02.653Z,-3.90
2022-12-13T02:16:38.032Z,-3.80
2022-12-13T02:22:26.308Z,-3.70
2022-12-13T02:27:46.962Z,-3.70
2022-12-13T02:33:28.093Z,-3.70
2022-12-13T02:38:39.502Z,-3.60
2022-12-13T02:44:02.102Z,-3.70
2022-12-13T02:49:11.151Z,-3.60
2022-12-13T02:54:17.868Z,-3.50
2022-12-13T02:59:26.391Z,-3.60
2022-12-13T03:05:16.445Z,-3.80
2022-12-13T03:10:30.167Z,-3.80
2022-12-13T03:15:46.186Z,-3.70
2022-12-13T03:20:56.054Z,-3.90
2022-12-13T03:26:12.875Z,-3.90
2022-12-13T03:31:20.268Z,-4.00
2022-12-13T03:36:28.084Z,-4.10
2022-12-13T03:41:36.549Z,-4.00
2022-12-13T03:46:43.153Z,-4.10
2022-12-13T03:51:49.820Z,-4.00
2022-12-13T03:56:56.334Z,-4.00
2022-12-13T04:02:01.859Z,-3.90
2022-12-13T04:07:22.596Z,-3.90
2022-12-13T04:12:34.639Z,-3.80
2022-12-13T04:17:40.945Z,-3.80
2022-12-13T04:22:47.037Z,-3.70
2022-12-13T04:27:53.786Z,-3.70
2022-12-13T04:33:00.303Z,-3.70
2022-12-13T04:38:06.737Z,-3.70
2022-12-13T04:43:13.358Z,-3.70
2022-12-13T04:48:30.718Z,-4.00
2022-12-13T04:53:28.768Z,-4.00
2022-12-13T04:58:34.988Z,-4.00
2022-12-13T05:03:41.605Z,-4.20
2022-12-13T05:08:48.392Z,-4.10
2022-12-13T05:13:54.612Z,-4.00
2022-12-13T05:19:01.220Z,-4.10
2022-12-13T05:24:08.497Z,-4.20
2022-12-13T05:29:14.831Z,-4.20
2022-12-13T05:34:21.905Z,-4.20
2022-12-13T05:39:30.085Z,-4.20
2022-12-13T05:44:36.242Z,-4.30
2022-12-13T05:49:42.966Z,-4.40
2022-12-13T05:54:50.148Z,-4.40
2022-12-13T05:59:56.469Z,-4.30
2022-12-13T06:05:03.602Z,-4.30
2022-12-13T06:10:11.189Z,-4.40
2022-12-13T06:15:21.714Z,-4.30
2022-12-13T06:20:26.083Z,-4.30
2022-12-13T06:25:34.287Z,-4.60
2022-12-13T06:30:42.711Z,-4.60
2022-12-13T06:35:49.310Z,-4.50
2022-12-13T06:40:56.554Z,-4.70
2022-12-13T06:46:07.720Z,-4.40
2022-12-13T06:51:22.765Z,-4.50
2022-12-13T06:56:26.162Z,-4.70
2022-12-13T07:01:37.088Z,-4.70
2022-12-13T07:06:41.355Z,-4.50
2022-12-13T07:11:51.748Z,-4.50
2022-12-13T07:17:02.891Z,-4.60
2022-12-13T07:22:02.995Z,-4.50
2022-12-13T07:27:09.553Z,-4.40
2022-12-13T07:32:17.934Z,-4.40
2022-12-13T07:37:29.927Z,-4.30
2022-12-13T07:42:35.728Z,-4.40
2022-12-13T07:47:42.915Z,-4.30
2022-12-13T07:52:51.807Z,-4.40
2022-12-13T07:57:59.542Z,-4.20
2022-12-13T08:03:11.118Z,-4.10
2022-12-13T08:08:19.879Z,-3.90
2022-12-13T08:13:26.660Z,-3.90
2022-12-13T08:18:33.775Z,-3.90
2022-12-13T08:23:39.546Z,-3.90
2022-12-13T08:28:46.299Z,-4.00
2022-12-13T08:33:52.665Z,-4.00
2022-12-13T08:39:01.466Z,-4.00
2022-12-13T08:44:08.079Z,-3.70
2022-12-13T08:49:15.161Z,-3.50
2022-12-13T08:54:31.553Z,-2.70
2022-12-13T08:59:30.128Z,-2.60
2022-12-13T09:04:36.742Z,-2.70
2022-12-13T09:09:43.114Z,-2.50
2022-12-13T09:14:49.650Z,-2.40
2022-12-13T09:19:57.912Z,-1.90
2022-12-13T09:25:06.716Z,-1.50
2022-12-13T09:30:15.649Z,-0.90
2022-12-13T09:35:23.191Z,-1.30
2022-12-13T09:40:31.400Z,-1.80
2022-12-13T09:45:42.769Z,-2.30
2022-12-13T09:50:58.538Z,-2.40
2022-12-13T09:56:10.443Z,-2.40
2022-12-13T10:01:07.728Z,-2.10
2022-12-13T10:06:22.698Z,-2.10
2022-12-13T10:11:32.571Z,-2.00
2022-12-13T10:16:44.184Z,-2.10
2022-12-13T10:21:51.618Z,-1.90
2022-12-13T10:27:02.556Z,-1.70
2022-12-13T10:32:14.922Z,-1.70
2022-12-13T10:37:34.391Z,-2.00
2022-12-13T10:42:40.910Z,-1.80
2022-12-13T10:47:48.074Z,-1.70
2022-12-13T10:52:54.696Z,-1.80
2022-12-13T10:58:12.067Z,-1.80
2022-12-13T11:03:35.923Z,-2.00
2022-12-13T11:08:42.567Z,-1.90
2022-12-13T11:13:55.507Z,-1.80
2022-12-13T11:19:09.166Z,-1.80
2022-12-13T11:24:25.715Z,-1.80
2022-12-13T11:29:59.169Z,-1.50
2022-12-13T11:35:17.920Z,-2.10
2022-12-13T11:40:32.189Z,-2.40
2022-12-13T11:45:53.404Z,-2.20
2022-12-13T11:51:01.628Z,-2.40
2022-12-13T11:56:30.922Z,-2.90
2022-12-13T12:01:52.093Z,-2.30
2022-12-13T12:07:33.782Z,-2.00
2022-12-13T12:12:37.418Z,-1.70
2022-12-13T12:17:43.795Z,-1.80
2022-12-13T12:23:03.201Z,-2.30
2022-12-13T12:28:54.657Z,-2.30
2022-12-13T12:34:27.194Z,-2.60
2022-12-13T12:39:52.604Z,-2.40
2022-12-13T12:45:06.213Z,-2.30
2022-12-13T12:50:42.955Z,-2.50
2022-12-13T12:56:23.412Z,-2.40
2022-12-13T13:01:43.784Z,-2.20
2022-12-13T13:07:01.362Z,-2.20
2022-12-13T13:12:30.025Z,-2.40
2022-12-13T13:17:29.036Z,-2.50
2022-12-13T13:22:44.321Z,-2.20
2022-12-13T13:27:50.972Z,-2.00
2022-12-13T13:32:59.155Z,-2.30
2022-12-13T13:38:30.433Z,-2.50
2022-12-13T13:43:36.877Z,-2.60
2022-12-13T13:49:02.768Z,-2.70
2022-12-13T13:54:31.410Z,-2.60
2022-12-13T14:00:16.564Z,-3.20
2022-12-13T14:05:58.659Z,-3.40
2022-12-13T14:11:51.156Z,-3.20
2022-12-13T14:17:44.271Z,-3.30
2022-12-13T14:22:57.978Z,-3.80
2022-12-13T14:28:30.032Z,-4.00
2022-12-13T14:33:36.434Z,-4.00
2022-12-13T14:38:42.958Z,-4.40
2022-12-13T14:43:50.300Z,-4.70
2022-12-13T14:48:57.554Z,-5.00
2022-12-13T14:54:07.094Z,-5.10
2022-12-13T14:59:14.746Z,-5.30
2022-12-13T15:04:31.360Z,-5.30
2022-12-13T15:09:38.922Z,-5.80
2022-12-13T15:14:54.003Z,-5.80
2022-12-13T15:20:02.421Z,-5.50
2022-12-13T15:25:10.652Z,-5.70
2022-12-13T15:30:18.385Z,-5.80
2022-12-13T15:35:28.663Z,-6.00
2022-12-13T15:40:36.390Z,-6.10
2022-12-13T15:45:47.247Z,-6.20
2022-12-13T15:51:14.531Z,-6.30
2022-12-13T15:56:43.464Z,-6.20
2022-12-13T16:01:57.986Z,-6.30
2022-12-13T16:07:02.635Z,-7.00
2022-12-13T16:12:11.473Z,-6.90
2022-12-13T16:17:30.623Z,-7.00
2022-12-13T16:22:37.355Z,-7.10
2022-12-13T16:27:44.264Z,-7.20
2022-12-13T16:38:00.293Z,-7.20
2022-12-13T16:43:11.659Z,-7.10
2022-12-13T16:48:18.804Z,-7.10
2022-12-13T16:53:26.384Z,-7.30
2022-12-13T16:58:33.920Z,-8.30
2022-12-13T17:03:40.973Z,-8.10
2022-12-13T17:08:47.849Z,-7.80
2022-12-13T17:13:55.069Z,-7.80
2022-12-13T17:19:02.252Z,-7.80
2022-12-13T17:24:09.862Z,-7.90
2022-12-13T17:29:17.982Z,-7.80
2022-12-13T17:34:24.304Z,-7.80
2022-12-13T17:39:29.771Z,-8.60
2022-12-13T17:44:36.958Z,-9.00
2022-12-13T17:49:43.410Z,-8.60
2022-12-13T17:54:50.053Z,-9.50
2022-12-13T17:59:57.247Z,-8.60
2022-12-13T18:05:05.672Z,-8.30
2022-12-13T18:10:13.012Z,-9.00
2022-12-13T18:15:19.628Z,-9.70
2022-12-13T18:20:27.117Z,-10.10
2022-12-13T18:25:34.011Z,-10.80
2022-12-13T18:30:40.903Z,-11.00
2022-12-13T18:35:47.667Z,-10.20
2022-12-13T18:40:56.043Z,-9.80
2022-12-13T18:46:06.041Z,-10.00
2022-12-13T18:51:13.022Z,-9.90
2022-12-13T18:56:21.938Z,-9.80
2022-12-13T19:01:28.973Z,-9.70
2022-12-13T19:06:36.155Z,-9.90
2022-12-13T19:11:45.112Z,-10.30
2022-12-13T19:16:51.405Z,-11.00
2022-12-13T19:22:00.077Z,-10.90
2022-12-13T19:27:06.685Z,-11.00
2022-12-13T19:32:13.810Z,-10.90
2022-12-13T19:37:21.402Z,-10.70
2022-12-13T19:42:28.629Z,-10.60
2022-12-13T19:47:35.800Z,-10.60
2022-12-13T19:52:42.405Z,-10.60
2022-12-13T19:57:49.424Z,-11.40
2022-12-13T20:02:57.751Z,-11.40
2022-12-13T20:08:04.234Z,-11.30
2022-12-13T20:13:11.588Z,-11.10
2022-12-13T20:18:19.461Z,-11.00
2022-12-13T20:23:27.018Z,-11.00
2022-12-13T20:28:34.562Z,-11.40
2022-12-13T20:33:44.912Z,-11.30
2022-12-13T20:38:53.800Z,-11.40
2022-12-13T20:44:02.381Z,-11.20
2022-12-13T20:49:10.830Z,-11.30
2022-12-13T20:54:19.765Z,-11.80
2022-12-13T20:59:26.028Z,-11.60
2022-12-13T21:04:32.617Z,-11.60
2022-12-13T21:09:39.106Z,-11.60
2022-12-13T21:14:47.767Z,-11.90
2022-12-13T21:19:57.088Z,-11.50
2022-12-13T21:25:04.027Z,-12.50
2022-12-13T21:30:12.080Z,-12.50
2022-12-13T21:35:19.900Z,-12.40
2022-12-13T21:40:27.988Z,-12.30
2022-12-13T21:45:35.546Z,-11.70
2022-12-13T21:50:41.948Z,-12.30
2022-12-13T21:55:48.201Z,-12.30
2022-12-13T22:00:55.019Z,-12.00
2022-12-13T22:06:03.046Z,-12.30
2022-12-13T22:11:21.108Z,-12.40
2022-12-13T22:16:23.780Z,-12.60
2022-12-13T22:21:31.329Z,-12.50
2022-12-13T22:26:39.466Z,-12.30
2022-12-13T22:31:49.006Z,-13.20
2022-12-13T22:36:55.277Z,-13.20
2022-12-13T22:42:02.130Z,-13.30
2022-12-13T22:47:08.632Z,-12.60
2022-12-13T22:52:14.794Z,-12.40
2022-12-13T22:57:21.130Z,-12.60
2022-12-13T23:02:27.748Z,-12.70
2022-12-13T23:07:36.198Z,-13.00
2022-12-13T23:12:59.868Z,-12.90
2022-12-13T23:18:06.836Z,-12.40
2022-12-13T23:23:13.268Z,-13.00
2022-12-13T23:28:19.224Z,-13.70
2022-12-13T23:33:25.630Z,-13.40
2022-12-13T23:38:33.320Z,-14.10
2022-12-13T23:43:41.743Z,-13.40
2022-12-13T23:48:49.232Z,-13.30
2022-12-13T23:53:56.607Z,-13.40
2022-12-13T23:59:02.983Z,-13.70
